Latest Coastal Weather Observations for Dennes Point

IDT60701

Issued at 3:42 pm EDT Monday 18 November 2019 (issued every 10 minutes, with the page automatically refreshed every 10 minutes)

About coastal observations | Map of coastal stations | Coastal observations for TAS | Marine services | Other Formats
Station Details ID: 094255 Name: DENNES POINT Lat: -43.06 Lon: 147.36 Height: 5.67 m
Data from the previous 72 hours. | See also: Recent months at Dennes Point
Date/Time
EDT
Wind Sea
Height
m
Swell Vis
km
Cloud Weather Temp
°C
Press
hPa
Rain since
9am
mm
Dir  Spd
kts
Gust
kts
Height
m
Period
s
Dir
18/03:30pm W 21 28 - - - - - - - 16.7 1001.7 0.0
18/03:00pm W 16 27 - - - - - - - 16.9 1001.9 0.0
18/02:35pm W 21 34 - - - - - - - 17.0 1001.7 0.0
18/02:30pm W 20 29 - - - - - - - 16.9 1001.9 0.0
18/02:00pm W 19 29 - - - - - - - 17.6 1001.9 0.0
18/01:44pm WNW 17 31 - - - - - - - 17.0 1002.0 0.0
18/01:36pm NW 15 27 - - - - - - - 16.9 1002.0 0.0
18/01:30pm WNW 15 23 - - - - - - - 17.0 1002.0 0.0
18/01:03pm WNW 21 32 - - - - - - - 16.5 1002.5 0.0
18/01:00pm WNW 20 29 - - - - - - - 17.0 1002.4 0.0
18/12:30pm W 22 36 - - - - - - - 16.4 1002.4 0.0
18/12:06pm WNW 17 34 - - - - - - - 16.5 1002.5 0.0
18/12:00pm W 15 24 - - - - - - - 16.5 1002.6 0.0
18/11:30am WNW 17 25 - - - - - - - 16.6 1002.7 0.0
18/11:00am W 21 31 - - - - - - - 18.1 1002.6 0.0
18/10:39am W 24 39 - - - - - - - 16.9 1003.1 0.0
18/10:30am WNW 24 33 - - - - - - - 15.8 1002.8 0.0
18/10:09am WNW 21 31 - - - - - - - 15.7 1003.3 0.0
18/10:00am WNW 18 28 - - - - - - - 16.1 1003.5 0.0
18/09:30am WNW 16 27 - - - - - - - 16.4 1003.4 0.0
18/09:17am WNW 15 25 - - - - - - - 15.7 1003.5 0.0
18/09:00am WNW 16 27 - - - - - - - 15.3 1003.7 0.0
18/08:35am W 17 27 - - - - - - - 15.1 1003.8 0.0
18/08:30am W 16 25 - - - - - - - 15.2 1004.0 0.0
18/08:00am WNW 19 30 - - - - - - - 15.3 1004.2 0.0
18/07:51am W 17 28 - - - - - - - 14.8 1004.4 0.0
18/07:30am W 12 18 - - - - - - - 14.7 1004.4 0.0
18/07:00am WNW 13 19 - - - - - - - 13.9 1004.3 0.0
18/06:30am NW 14 20 - - - - - - - 13.4 1004.5 0.0
18/06:00am NW 7 12 - - - - - - - 12.7 1004.8 0.0
18/05:30am NW 8 15 - - - - - - - 12.4 1004.9 0.0
18/05:00am NW 10 15 - - - - - - - 12.0 1005.5 0.0
18/04:30am NNW 13 20 - - - - - - - 11.9 1005.8 0.0
18/04:00am NW 13 20 - - - - - - - 11.7 1006.5 0.0
18/03:30am WNW 15 22 - - - - - - - 11.5 1007.0 0.0
18/03:00am WNW 15 24 - - - - - - - 11.6 1007.6 0.0
18/02:30am WNW 11 17 - - - - - - - 11.6 1008.3 0.0
18/02:00am WNW 14 20 - - - - - - - 11.7 1008.8 0.0
18/01:30am WNW 15 23 - - - - - - - 11.6 1009.5 0.0
18/01:25am WNW 14 23 - - - - - - - 11.7 1009.5 0.0
18/01:00am NW 6 10 - - - - - - - 11.3 1010.3 0.0
18/12:30am NNW 5 10 - - - - - - - 11.4 1010.8 0.0
18/12:00am WNW 7 13 - - - - - - - 11.4 1011.3 0.0
 
Date/Time
EDT
Wind Sea
Height
m
Swell Vis
km
Cloud Weather Temp
°C
Press
hPa
Rain since
9am
mm
Dir  Spd
kts
Gust
kts
Height
m
Period
s
Dir
17/11:30pm NNW 8 14 - - - - - - - 11.6 1011.6 0.0
17/11:00pm NW 9 15 - - - - - - - 11.6 1012.4 0.0
17/10:30pm NW 6 11 - - - - - - - 11.6 1013.1 0.0
17/10:00pm WNW 8 13 - - - - - - - 11.6 1013.5 0.0
17/09:30pm WNW 11 18 - - - - - - - 11.7 1013.9 0.0
17/09:00pm WNW 11 16 - - - - - - - 11.9 1013.8 0.0
17/08:30pm WNW 11 15 - - - - - - - 12.3 1014.1 0.0
17/08:00pm W 8 12 - - - - - - - 12.4 1014.4 0.0
17/07:30pm W 10 13 - - - - - - - 12.6 1014.4 0.0
17/07:00pm W 11 14 - - - - - - - 13.0 1014.3 0.0
17/06:30pm W 12 15 - - - - - - - 13.4 1014.1 0.0
17/06:00pm WSW 14 20 - - - - - - - 13.7 1014.5 0.0
17/05:30pm WSW 14 19 - - - - - - - 14.0 1014.6 0.0
17/05:00pm WSW 16 20 - - - - - - - 14.6 1014.5 0.0
17/04:30pm W 16 22 - - - - - - - 15.1 1014.3 0.0
17/04:00pm W 14 20 - - - - - - - 14.8 1014.4 0.0
17/03:30pm W 14 18 - - - - - - - 16.4 1014.2 0.0
17/03:00pm WSW 12 16 - - - - - - - 15.2 1014.2 0.0
17/02:30pm W 14 18 - - - - - - - 14.5 1014.5 0.0
17/02:00pm WSW 16 21 - - - - - - - 14.4 1014.7 0.0
17/01:30pm WSW 16 23 - - - - - - - 14.7 1014.9 0.0
17/01:00pm WSW 15 19 - - - - - - - 15.2 1014.9 0.0
17/12:30pm WSW 13 18 - - - - - - - 14.8 1014.7 0.0
17/12:00pm WSW 15 22 - - - - - - - 13.2 1014.9 0.0
17/11:30am WSW 15 27 - - - - - - - 13.8 1015.0 0.0
17/11:28am WSW 16 27 - - - - - - - 13.5 1015.1 0.0
17/11:00am SW 14 19 - - - - - - - 13.1 1015.4 0.0
17/10:30am WSW 17 23 - - - - - - - 11.8 1015.4 0.0
17/10:03am WSW 15 25 - - - - - - - 12.1 1015.2 0.0
17/10:00am WSW 14 21 - - - - - - - 12.4 1015.3 0.0
17/09:44am WSW 17 27 - - - - - - - 11.4 1015.2 0.0
17/09:30am WSW 17 25 - - - - - - - 11.5 1015.2 0.0
17/09:00am WSW 15 20 - - - - - - - 11.5 1015.0 0.0
17/08:30am WSW 17 21 - - - - - - - 10.6 1014.7 0.0
17/08:00am W 16 21 - - - - - - - 10.1 1014.4 0.0
17/07:30am WSW 10 12 - - - - - - - 9.2 1014.4 0.0
17/07:00am WSW 10 14 - - - - - - - 8.0 1013.8 0.0
17/06:30am WSW 13 16 - - - - - - - 7.7 1013.6 0.0
17/06:00am WSW 15 18 - - - - - - - 7.4 1013.2 0.0
17/05:30am WSW 13 17 - - - - - - - 7.4 1012.9 0.0
17/05:00am W 13 17 - - - - - - - 7.4 1012.6 0.0
17/04:30am WSW 15 18 - - - - - - - 7.5 1012.4 0.0
17/04:00am W 12 14 - - - - - - - 7.5 1012.1 0.0
17/03:30am WSW 15 21 - - - - - - - 7.7 1011.7 0.0
17/03:00am WNW 12 17 - - - - - - - 7.8 1011.6 0.0
17/02:30am NW 10 13 - - - - - - - 7.7 1011.5 0.0
17/02:00am WNW 7 8 - - - - - - - 7.4 1011.2 0.0
17/01:30am SW 6 9 - - - - - - - 6.8 1011.5 0.0
17/01:00am WSW 12 18 - - - - - - - 7.9 1011.5 0.0
17/12:30am WNW 5 8 - - - - - - - 8.2 1011.2 0.0
17/12:00am WSW 8 11 - - - - - - - 8.2 1011.2 0.0
 
Date/Time
EDT
Wind Sea
Height
m
Swell Vis
km
Cloud Weather Temp
°C
Press
hPa
Rain since
9am
mm
Dir  Spd
kts
Gust
kts
Height
m
Period
s
Dir
16/11:30pm WSW 9 11 - - - - - - - 9.4 1010.8 0.0
16/11:00pm WSW 7 10 - - - - - - - 9.2 1010.6 0.0
16/10:30pm W 20 27 - - - - - - - 9.3 1010.7 0.0
16/10:00pm W 18 24 - - - - - - - 9.9 1010.2 0.0
16/09:30pm W 12 17 - - - - - - - 10.3 1009.9 0.0
16/09:00pm W 13 21 - - - - - - - 10.4 1009.4 0.0
16/08:30pm W 15 22 - - - - - - - 10.6 1009.2 0.0
16/08:26pm W 17 28 - - - - - - - 10.7 1009.2 0.0
16/08:16pm WSW 19 27 - - - - - - - 10.9 1008.9 0.0
16/08:00pm WSW 12 17 - - - - - - - 11.0 1008.6 0.0
16/07:30pm WSW 19 24 - - - - - - - 11.1 1008.0 0.0
16/07:00pm W 16 23 - - - - - - - 11.5 1007.8 0.0
16/06:30pm W 25 32 - - - - - - - 11.5 1007.4 0.0
16/06:00pm WSW 31 43 - - - - - - - 12.5 1007.0 0.0
16/05:58pm WSW 32 43 - - - - - - - 12.5 1007.2 0.0
16/05:47pm W 30 44 - - - - - - - 12.7 1006.7 0.0
16/05:30pm W 23 34 - - - - - - - 13.9 1006.3 0.0
16/05:03pm WSW 23 35 - - - - - - - 14.2 1005.9 0.0
16/05:00pm W 22 33 - - - - - - - 14.1 1006.0 0.0
16/04:58pm W 22 33 - - - - - - - 14.7 1006.1 0.0
16/04:30pm W 30 41 - - - - - - - 14.3 1005.7 0.0
16/04:00pm WSW 23 37 - - - - - - - 14.3 1006.0 0.0
16/03:42pm WSW 22 34 - - - - - - - 14.0 1005.9 0.0
16/03:30pm WSW 23 33 - - - - - - - 12.5 1006.2 0.0
16/03:27pm WSW 25 35 - - - - - - - 12.0 1006.4 0.0
16/03:16pm WSW 25 37 - - - - - - - 14.9 1005.7 0.0
16/03:03pm SW 20 33 - - - - - - - 14.3 1005.7 0.0
16/03:00pm SW 20 27 - - - - - - - 13.7 1005.8 0.0
16/02:51pm WSW 26 35 - - - - - - - 13.4 1006.1 0.0
16/02:31pm W 23 35 - - - - - - - 14.7 1006.2 0.0
16/02:30pm W 22 30 - - - - - - - 14.7 1006.4 0.0
16/02:02pm WNW 17 28 - - - - - - - 11.8 1007.0 0.0
16/02:00pm W 18 28 - - - - - - - 11.4 1007.0 0.0
16/01:56pm W 22 29 - - - - - - - 11.1 1007.1 0.0
16/01:30pm WSW 28 41 - - - - - - - 13.9 1006.1 0.0
16/01:24pm WSW 25 41 - - - - - - - 14.3 1005.7 0.0
16/01:21pm WSW 23 39 - - - - - - - 14.1 1005.7 0.0
16/01:00pm WSW 21 33 - - - - - - - 12.7 1006.2 0.0
16/12:45pm WSW 19 30 - - - - - - - 13.3 1006.2 0.0
16/12:30pm W 23 32 - - - - - - - 14.2 1006.4 0.0
16/12:00pm W 19 31 - - - - - - - 12.1 1006.8 0.0
16/11:56am W 20 31 - - - - - - - 11.9 1006.7 0.0
16/11:30am W 20 27 - - - - - - - 12.6 1006.6 0.0
16/11:20am WNW 15 29 - - - - - - - 12.4 1006.6 0.0
16/11:12am W 18 27 - - - - - - - 12.4 1006.9 0.0
16/11:05am W 22 32 - - - - - - - 12.9 1006.7 0.0
16/11:00am W 25 32 - - - - - - - 12.6 1006.6 0.0
16/10:45am W 22 31 - - - - - - - 12.6 1006.5 0.0
16/10:30am W 11 21 - - - - - - - 11.3 1006.8 0.0
16/10:00am WSW 15 26 - - - - - - - 11.5 1006.5 0.0
16/09:36am W 17 27 - - - - - - - 12.1 1006.3 0.0
16/09:30am WSW 20 27 - - - - - - - 11.8 1006.3 0.0
16/09:00am WSW 15 25 - - - - - - - 11.1 1006.2 0.0
16/08:30am WSW 21 29 - - - - - - - 10.8 1005.9 0.0
16/08:08am WSW 24 35 - - - - - - - 10.3 1005.4 0.0
16/08:00am W 21 28 - - - - - - - 9.9 1005.5 0.0
16/07:30am WSW 27 35 - - - - - - - 9.2 1005.2 0.0
16/07:00am W 23 28 - - - - - - - 9.0 1005.4 0.0
16/06:30am WSW 22 27 - - - - - - - 8.5 1005.1 0.0
16/06:16am WSW 19 28 - - - - - - - 8.1 1004.9 0.0
16/06:00am WNW 12 18 - - - - - - - 8.3 1005.4 0.0
16/05:30am W 11 19 - - - - - - - 7.8 1005.2 0.0
16/05:00am WNW 10 15 - - - - - - - 8.1 1005.0 0.0
16/04:30am W 18 29 - - - - - - - 8.1 1004.8 0.0
16/04:21am W 17 24 - - - - - - - 8.4 1004.8 0.0
16/04:00am NW 8 13 - - - - - - - 8.5 1005.0 0.0
16/03:30am WNW 8 14 - - - - - - - 8.3 1005.0 0.0
16/03:00am NW 5 8 - - - - - - - 8.0 1005.1 0.0
16/02:30am WSW 9 15 - - - - - - - 7.6 1005.0 0.0
16/02:00am NW 7 10 - - - - - - - 8.4 1004.9 0.0
16/01:30am NW 7 10 - - - - - - - 8.3 1005.0 0.0
16/01:00am WNW 5 10 - - - - - - - 8.4 1005.1 0.0
16/12:30am NNW 9 11 - - - - - - - 8.4 1005.2 0.0
16/12:00am NW 6 9 - - - - - - - 8.0 1005.2 0.0
 
Date/Time
EDT
Wind Sea
Height
m
Swell Vis
km
Cloud Weather Temp
°C
Press
hPa
Rain since
9am
mm
Dir  Spd
kts
Gust
kts
Height
m
Period
s
Dir
15/11:30pm WNW 9 14 - - - - - - - 7.9 1004.9 0.0
15/11:00pm NW 8 13 - - - - - - - 8.2 1005.1 0.0
15/10:30pm WNW 9 13 - - - - - - - 8.1 1005.0 0.0
15/10:00pm WNW 9 13 - - - - - - - 8.5 1004.5 0.0
15/09:30pm WNW 10 14 - - - - - - - 8.3 1004.4 0.0
15/09:00pm NW 11 16 - - - - - - - 9.2 1004.2 0.0
15/08:30pm NW 8 13 - - - - - - - 9.2 1003.6 0.0
15/08:00pm N 7 11 - - - - - - - 9.4 1003.2 0.0
15/07:30pm WSW 14 23 - - - - - - - 10.6 1002.7 0.0
15/07:17pm SW 8 21 - - - - - - - 10.7 1002.2 0.0
15/07:00pm SSW 8 13 - - - - - - - 10.7 1001.9 0.0
15/06:30pm W 16 24 - - - - - - - 11.4 1001.1 0.0
15/06:00pm WSW 18 26 - - - - - - - 11.7 1000.5 0.0
15/05:30pm W 20 25 - - - - - - - 13.1 1000.0 0.0
15/05:00pm W 23 30 - - - - - - - 12.8 999.4 0.0
15/04:30pm WSW 22 31 - - - - - - - 12.5 999.2 0.0
15/04:00pm W 30 42 - - - - - - - 12.7 998.8 0.0

Other formats

Comma delimited format used in spreadsheet applications
http://www.bom.gov.au/fwo/IDT60701/IDT60701.94988.axf

JavaScript Object Notation format (JSON) in row-major order
http://www.bom.gov.au/fwo/IDT60701/IDT60701.94988.json

Data quality

Most of these data are generated automatically and are frequently updated. Quality checks on data are not normally performed. It is possible for incorrect values to appear. Refer to information at About Latest Weather Observations and please check the disclaimer before using these data.